Time;durP1;ratioP1;P1;durP2;ratioP2;P2;SDS_P1;SDS_P2;PMS_P1;PMS_P2;Temp;Humidity;BMP_temperature;BMP_pressure;BME280_temperature;BME280_humidity;BME280_pressure;Samples;Min_cycle;Max_cycle;Signal;HPM_P1;HPM_P2
2023/07/24 00:01:48;;;;;;;3.57;2.30;;;;;;;20.77;100.00;99270.41;5055341;28;20229;-70
2023/07/24 00:04:13;;;;;;;3.13;2.43;;;;;;;20.77;100.00;99256.53;5050847;28;20535;-70
2023/07/24 00:06:38;;;;;;;3.23;2.20;;;;;;;20.78;100.00;99269.41;5051261;28;20173;-70
2023/07/24 00:09:04;;;;;;;6.30;2.30;;;;;;;20.72;100.00;99256.22;5052763;28;20223;-70
2023/07/24 00:11:29;;;;;;;4.83;2.23;;;;;;;20.78;100.00;99256.34;5043682;28;20227;-70
2023/07/24 00:13:54;;;;;;;2.60;2.37;;;;;;;20.71;100.00;99258.03;5056724;28;20225;-69
2023/07/24 00:16:19;;;;;;;3.00;2.17;;;;;;;20.69;100.00;99246.91;5051456;28;20188;-70
2023/07/24 00:18:45;;;;;;;6.60;2.60;;;;;;;20.74;100.00;99252.47;5051267;28;20170;-69
2023/07/24 00:21:10;;;;;;;3.47;2.27;;;;;;;20.72;100.00;99245.78;5049800;28;20240;-69
2023/07/24 00:23:36;;;;;;;3.13;2.73;;;;;;;20.72;100.00;99243.97;5058916;28;20181;-69
2023/07/24 00:26:01;;;;;;;5.53;2.27;;;;;;;20.78;100.00;99247.72;5051521;28;20291;-69
2023/07/24 00:28:26;;;;;;;2.90;2.33;;;;;;;20.77;100.00;99244.28;5051888;28;20189;-70
2023/07/24 00:30:52;;;;;;;2.97;2.23;;;;;;;20.80;100.00;99243.94;5048045;28;20743;-69
2023/07/24 00:33:17;;;;;;;5.17;2.30;;;;;;;20.83;100.00;99241.97;5060986;28;20264;-69
2023/07/24 00:35:42;;;;;;;8.70;2.70;;;;;;;20.87;100.00;99243.25;5049710;28;20193;-69
2023/07/24 00:38:08;;;;;;;3.47;2.10;;;;;;;20.84;100.00;99247.03;5045013;28;20200;-69
2023/07/24 00:40:33;;;;;;;5.27;2.40;;;;;;;20.86;100.00;99237.19;5038563;28;20778;-69
2023/07/24 00:42:59;;;;;;;4.93;2.20;;;;;;;20.90;100.00;99228.06;5062388;28;20205;-69
2023/07/24 00:45:25;;;;;;;4.43;2.40;;;;;;;20.90;100.00;99225.44;5050032;28;20503;-69
2023/07/24 00:47:51;;;;;;;2.23;2.03;;;;;;;20.88;100.00;99232.63;5051515;28;20173;-69
2023/07/24 00:50:16;;;;;;;5.63;2.13;;;;;;;20.86;100.00;99231.97;5043003;28;20181;-69
2023/07/24 00:52:42;;;;;;;3.83;2.80;;;;;;;20.81;100.00;99239.50;5050110;28;20260;-69
2023/07/24 00:55:10;;;;;;;4.97;2.70;;;;;;;20.81;100.00;99242.13;5044243;28;20201;-70
2023/07/24 00:57:36;;;;;;;2.53;2.20;;;;;;;20.79;100.00;99244.13;5050105;28;20200;-69
2023/07/24 01:00:03;;;;;;;2.97;2.10;;;;;;;20.78;100.00;99245.09;5050532;28;20238;-70
2023/07/24 01:02:29;;;;;;;8.13;2.27;;;;;;;20.68;100.00;99237.44;5023857;28;20218;-70
2023/07/24 01:04:55;;;;;;;3.80;2.23;;;;;;;20.61;100.00;99232.06;5044831;28;20617;-70
2023/07/24 01:07:20;;;;;;;2.67;2.10;;;;;;;20.61;100.00;99220.81;5049497;28;20177;-70
2023/07/24 01:09:47;;;;;;;4.50;2.20;;;;;;;20.64;100.00;99221.28;5051762;28;20173;-71
2023/07/24 01:12:32;;;;;;;2.97;2.50;;;;;;;20.45;100.00;99219.06;5056170;28;20236;-70
2023/07/24 01:15:09;;;;;;;4.30;2.70;;;;;;;20.44;100.00;99213.06;5050688;28;20659;-70
2023/07/24 01:17:39;;;;;;;5.20;2.20;;;;;;;20.55;100.00;99213.66;5050306;28;20260;-70
2023/07/24 01:20:10;;;;;;;3.80;2.27;;;;;;;20.58;100.00;99206.28;5039906;28;20224;-71
2023/07/24 01:22:52;;;;;;;6.57;2.47;;;;;;;20.46;100.00;99212.88;5065265;28;20228;-70
2023/07/24 01:25:31;;;;;;;4.47;2.73;;;;;;;20.48;100.00;99198.66;5049797;28;20189;-69
2023/07/24 01:27:56;;;;;;;2.73;2.30;;;;;;;20.55;100.00;99205.81;5051331;28;20189;-70
2023/07/24 01:30:22;;;;;;;5.30;2.23;;;;;;;20.52;100.00;99201.75;5043540;28;20387;-69
2023/07/24 01:32:48;;;;;;;2.67;2.47;;;;;;;20.43;100.00;99202.78;5061150;28;20177;-70
2023/07/24 01:35:14;;;;;;;2.77;2.43;;;;;;;20.45;100.00;99204.25;5040879;28;20181;-70
2023/07/24 01:37:41;;;;;;;2.50;2.30;;;;;;;20.47;100.00;99198.84;5051652;28;20223;-70
2023/07/24 01:40:08;;;;;;;3.00;2.70;;;;;;;20.42;100.00;99201.94;5041689;28;20664;-69
2023/07/24 01:42:34;;;;;;;3.23;2.23;;;;;;;20.41;100.00;99191.69;5065093;28;20228;-69
2023/07/24 01:44:59;;;;;;;2.50;2.30;;;;;;;20.41;100.00;99194.28;5051043;28;20601;-70
2023/07/24 01:47:25;;;;;;;2.37;2.17;;;;;;;20.38;100.00;99186.78;5050820;28;20177;-69
2023/07/24 01:49:50;;;;;;;2.50;2.20;;;;;;;20.38;100.00;99174.56;5051036;28;20611;-69
2023/07/24 01:52:15;;;;;;;3.70;2.33;;;;;;;20.45;100.00;99167.66;5052880;28;20216;-70
2023/07/24 01:54:41;;;;;;;5.67;2.57;;;;;;;20.38;100.00;99163.28;5039885;28;20256;-69
2023/07/24 01:57:06;;;;;;;5.00;2.57;;;;;;;20.32;100.00;99147.31;5050804;28;20185;-69
2023/07/24 01:59:32;;;;;;;3.63;2.30;;;;;;;20.41;100.00;99142.06;5050914;28;20197;-68
2023/07/24 02:01:57;;;;;;;2.47;2.20;;;;;;;20.24;100.00;99134.31;5054771;28;20232;-69
2023/07/24 02:04:22;;;;;;;2.20;2.00;;;;;;;20.03;100.00;99134.06;5049215;28;20181;-69
2023/07/24 02:06:48;;;;;;;2.90;2.47;;;;;;;20.16;100.00;99129.91;5049582;28;20634;-69
2023/07/24 02:09:14;;;;;;;2.60;2.40;;;;;;;20.09;100.00;99118.50;5049622;28;20272;-69
2023/07/24 02:11:40;;;;;;;3.40;2.93;;;;;;;20.06;100.00;99124.09;5052718;28;20311;-70
2023/07/24 02:14:05;;;;;;;2.57;2.37;;;;;;;20.13;100.00;99132.88;5053313;28;20346;-69
2023/07/24 02:16:30;;;;;;;2.63;2.43;;;;;;;20.09;100.00;99138.59;5048966;28;20178;-69
2023/07/24 02:18:56;;;;;;;3.53;2.33;;;;;;;20.06;100.00;99144.16;5050986;28;20182;-69
2023/07/24 02:21:21;;;;;;;3.50;2.60;;;;;;;20.12;100.00;99144.28;5041823;28;20237;-68
2023/07/24 02:23:46;;;;;;;2.57;2.37;;;;;;;20.06;100.00;99144.16;5049766;28;20217;-69
2023/07/24 02:26:11;;;;;;;2.60;2.30;;;;;;;19.93;100.00;99145.50;5053878;28;20192;-69
2023/07/24 02:28:37;;;;;;;6.37;2.10;;;;;;;19.80;100.00;99153.81;5054538;28;20403;-69
2023/07/24 02:31:02;;;;;;;3.00;2.43;;;;;;;19.77;100.00;99148.94;5050053;28;20745;-69
2023/07/24 02:33:27;;;;;;;3.43;2.53;;;;;;;19.72;100.00;99134.75;5053793;28;20191;-68
2023/07/24 02:35:52;;;;;;;4.60;2.53;;;;;;;19.64;100.00;99146.03;5045323;28;20192;-68
2023/07/24 02:38:18;;;;;;;3.00;2.37;;;;;;;19.44;100.00;99149.00;5049000;28;20177;-69
2023/07/24 02:40:44;;;;;;;5.00;2.63;;;;;;;19.36;100.00;99148.97;5049565;28;20236;-69
2023/07/24 02:43:09;;;;;;;4.13;2.40;;;;;;;19.23;100.00;99159.13;5063711;28;20211;-69
2023/07/24 02:45:35;;;;;;;2.60;2.17;;;;;;;19.18;100.00;99168.22;5040246;28;20182;-69
2023/07/24 02:48:01;;;;;;;7.30;3.20;;;;;;;19.14;100.00;99160.91;5054011;28;20256;-68
2023/07/24 02:50:27;;;;;;;5.77;2.67;;;;;;;19.15;100.00;99160.72;5045115;28;20235;-69
2023/07/24 02:52:52;;;;;;;4.67;2.30;;;;;;;19.09;100.00;99163.16;5052612;28;20369;-70
2023/07/24 02:55:17;;;;;;;2.17;1.97;;;;;;;19.00;100.00;99162.34;5040552;28;20296;-70
2023/07/24 02:57:43;;;;;;;2.33;2.10;;;;;;;19.05;100.00;99167.06;5053895;28;20231;-70
2023/07/24 03:00:09;;;;;;;2.47;2.13;;;;;;;19.11;100.00;99164.63;5033325;27;20634;-70
2023/07/24 03:02:34;;;;;;;3.70;2.40;;;;;;;19.22;100.00;99152.25;5062264;28;20197;-70
2023/07/24 03:04:59;;;;;;;7.03;2.43;;;;;;;19.22;100.00;99141.84;5053473;28;20201;-70
2023/07/24 03:07:24;;;;;;;2.33;2.13;;;;;;;19.10;100.00;99126.53;5051992;28;20188;-70
2023/07/24 03:09:50;;;;;;;3.23;2.40;;;;;;;18.85;100.00;99134.28;5053824;28;20695;-70
2023/07/24 03:12:16;;;;;;;3.37;2.50;;;;;;;18.91;100.00;99145.06;5045929;28;20234;-70
2023/07/24 03:14:41;;;;;;;3.23;2.03;;;;;;;18.79;100.00;99140.16;5046951;28;20568;-70
2023/07/24 03:17:06;;;;;;;4.93;2.83;;;;;;;18.80;100.00;99141.75;5046527;28;20579;-70
2023/07/24 03:19:31;;;;;;;3.90;2.70;;;;;;;18.88;100.00;99133.16;5047179;28;20208;-70
2023/07/24 03:21:57;;;;;;;2.40;2.20;;;;;;;18.85;100.00;99120.44;5053985;28;20286;-70
2023/07/24 03:24:22;;;;;;;2.97;2.40;;;;;;;18.66;100.00;99122.38;5053668;28;20178;-70
2023/07/24 03:26:47;;;;;;;4.57;1.97;;;;;;;18.69;100.00;99103.00;5053386;28;20186;-70
2023/07/24 03:29:13;;;;;;;4.90;2.47;;;;;;;18.81;100.00;99100.91;5039715;28;20226;-69
2023/07/24 03:31:38;;;;;;;2.60;2.20;;;;;;;18.69;100.00;99095.19;5024487;28;20228;-69
2023/07/24 03:34:03;;;;;;;7.40;2.27;;;;;;;18.59;100.00;99084.91;5055511;28;20246;-68
2023/07/24 03:36:28;;;;;;;7.17;2.67;;;;;;;18.63;100.00;99083.63;5047275;28;20194;-68
2023/07/24 03:38:54;;;;;;;4.13;2.27;;;;;;;18.57;100.00;99076.47;5051549;28;20265;-69
2023/07/24 03:41:19;;;;;;;2.40;2.20;;;;;;;18.58;100.00;99062.47;5052552;28;20232;-70
2023/07/24 03:43:44;;;;;;;4.97;2.77;;;;;;;18.42;100.00;99041.59;5058594;28;20664;-69
2023/07/24 03:46:09;;;;;;;3.90;2.30;;;;;;;18.32;100.00;99033.94;5052316;28;20185;-69
2023/07/24 03:48:36;;;;;;;3.60;2.33;;;;;;;18.43;100.00;99035.41;5052753;28;20177;-70
2023/07/24 03:51:01;;;;;;;2.50;2.30;;;;;;;18.39;100.00;99021.91;5039501;28;20216;-69
2023/07/24 03:53:27;;;;;;;8.50;2.50;;;;;;;18.34;100.00;99027.59;5041142;28;20660;-69
2023/07/24 03:55:52;;;;;;;3.63;2.40;;;;;;;18.46;100.00;99048.13;5049654;28;20178;-69
2023/07/24 03:58:18;;;;;;;2.60;2.40;;;;;;;18.62;100.00;99071.59;5051332;28;20181;-69
2023/07/24 04:00:43;;;;;;;2.50;2.30;;;;;;;18.68;100.00;99070.09;5043514;28;20230;-69
2023/07/24 04:03:09;;;;;;;4.23;2.30;;;;;;;18.61;100.00;99069.94;5062072;28;20284;-69
2023/07/24 04:05:35;;;;;;;3.33;2.23;;;;;;;18.38;100.00;99064.53;5050794;28;20178;-69
2023/07/24 04:08:00;;;;;;;3.73;2.50;;;;;;;18.62;100.00;99061.16;5053061;28;20185;-69
2023/07/24 04:10:26;;;;;;;3.10;2.67;;;;;;;18.69;100.00;99056.94;5045063;28;20310;-69
2023/07/24 04:12:51;;;;;;;3.17;2.70;;;;;;;18.66;100.00;99059.84;5064229;28;20179;-69
2023/07/24 04:15:16;;;;;;;3.27;2.60;;;;;;;18.75;100.00;99071.09;5051665;28;20232;-69
2023/07/24 04:17:42;;;;;;;2.47;2.20;;;;;;;18.79;100.00;99080.22;5052391;28;20181;-69
2023/07/24 04:20:07;;;;;;;3.60;2.50;;;;;;;18.95;100.00;99087.28;5037273;28;20241;-70
2023/07/24 04:22:33;;;;;;;2.87;2.63;;;;;;;19.05;100.00;99076.66;5054696;28;20281;-69
2023/07/24 04:24:58;;;;;;;5.80;2.83;;;;;;;19.05;100.00;99076.66;5050501;28;20189;-70
2023/07/24 04:27:23;;;;;;;4.00;2.67;;;;;;;19.11;100.00;99080.41;5050963;28;20177;-69
2023/07/24 04:29:48;;;;;;;3.63;2.43;;;;;;;19.01;100.00;99078.81;5050680;28;20214;-70
2023/07/24 04:32:14;;;;;;;4.07;2.27;;;;;;;18.98;100.00;99067.91;5057259;28;20220;-69
2023/07/24 04:34:39;;;;;;;5.93;2.63;;;;;;;19.00;100.00;99079.78;5051557;28;20670;-69
2023/07/24 04:37:04;;;;;;;7.83;2.80;;;;;;;18.87;100.00;99082.03;5052034;28;20182;-70
2023/07/24 04:39:30;;;;;;;3.73;2.67;;;;;;;18.83;100.00;99081.53;5050678;28;20204;-69
2023/07/24 04:41:55;;;;;;;4.03;2.50;;;;;;;18.92;100.00;99084.97;5056532;28;20715;-69
2023/07/24 04:44:20;;;;;;;2.50;2.30;;;;;;;19.09;100.00;99091.00;5049411;28;20212;-70
2023/07/24 04:46:46;;;;;;;4.13;2.80;;;;;;;19.06;100.00;99106.16;5049818;28;20181;-70
2023/07/24 04:49:11;;;;;;;6.83;2.93;;;;;;;19.01;100.00;99101.44;5051967;28;20616;-70
2023/07/24 04:51:36;;;;;;;3.07;2.33;;;;;;;19.09;100.00;99090.19;5053804;28;20318;-69
2023/07/24 04:54:01;;;;;;;6.80;2.70;;;;;;;19.31;100.00;99075.66;5054585;28;20637;-70
2023/07/24 04:56:27;;;;;;;3.33;2.80;;;;;;;19.43;100.00;99084.78;5050113;28;20177;-69
2023/07/24 04:58:52;;;;;;;4.23;2.60;;;;;;;19.37;100.00;99095.84;5051960;28;20583;-70
2023/07/24 05:01:17;;;;;;;3.03;2.53;;;;;;;19.22;100.00;99094.91;5041185;28;20291;-69
2023/07/24 05:03:42;;;;;;;3.70;2.90;;;;;;;19.37;100.00;99100.28;5054148;28;20601;-70
2023/07/24 05:06:08;;;;;;;6.43;3.07;;;;;;;19.30;100.00;99097.50;5047460;28;20231;-70
2023/07/24 05:08:33;;;;;;;10.83;2.93;;;;;;;19.39;100.00;99106.94;5040687;28;20255;-70
2023/07/24 05:10:58;;;;;;;5.47;2.73;;;;;;;19.49;100.00;99117.22;5048275;28;20227;-70
2023/07/24 05:13:24;;;;;;;4.87;2.97;;;;;;;19.52;100.00;99117.69;5060210;28;20305;-70
2023/07/24 05:15:50;;;;;;;8.03;3.07;;;;;;;19.61;100.00;99113.28;5049469;28;20727;-70
2023/07/24 05:18:15;;;;;;;18.57;3.40;;;;;;;19.73;100.00;99111.09;5051616;28;20217;-70
2023/07/24 05:20:48;;;;;;;16.43;3.77;;;;;;;19.77;100.00;99098.53;5042475;28;20232;-70
2023/07/24 05:23:14;;;;;;;19.43;3.57;;;;;;;19.83;100.00;99087.47;5061190;28;20234;-70
2023/07/24 05:25:39;;;;;;;11.87;3.30;;;;;;;19.93;100.00;99087.28;5050875;28;20244;-70
2023/07/24 05:28:04;;;;;;;13.97;3.20;;;;;;;19.92;100.00;99090.84;5050285;28;20181;-70
2023/07/24 05:30:29;;;;;;;14.40;3.80;;;;;;;19.84;100.00;99089.09;5039743;28;20315;-70
2023/07/24 05:32:55;;;;;;;12.90;3.50;;;;;;;19.99;100.00;99095.25;5043272;28;20626;-70
2023/07/24 05:35:20;;;;;;;13.83;3.10;;;;;;;20.00;100.00;99098.66;5045817;28;20205;-69
2023/07/24 05:37:45;;;;;;;7.57;2.83;;;;;;;20.12;100.00;99097.31;5051200;28;20177;-69
2023/07/24 05:40:11;;;;;;;7.40;2.97;;;;;;;20.26;100.00;99093.16;5042064;28;20205;-71
2023/07/24 05:42:41;;;;;;;5.50;2.97;;;;;;;20.23;100.00;99090.06;5065130;28;20193;-60
2023/07/24 05:45:07;;;;;;;4.50;2.47;;;;;;;20.37;100.00;99081.50;5050504;28;20197;-60
2023/07/24 05:47:33;;;;;;;6.20;2.80;;;;;;;20.36;100.00;99086.91;5049686;28;20192;-59
2023/07/24 05:49:58;;;;;;;3.60;2.50;;;;;;;20.37;100.00;99091.97;5050846;28;20264;-58
2023/07/24 05:52:23;;;;;;;5.10;2.87;;;;;;;20.22;100.00;99085.81;5038530;28;20208;-59
2023/07/24 05:54:48;;;;;;;3.87;2.50;;;;;;;20.11;100.00;99085.22;5050556;28;20196;-59
2023/07/24 05:57:14;;;;;;;3.30;2.80;;;;;;;20.33;100.00;99093.31;5050809;28;20188;-59
2023/07/24 05:59:39;;;;;;;7.40;2.97;;;;;;;20.31;100.00;99096.06;5053825;28;20193;-59
2023/07/24 06:02:05;;;;;;;4.33;2.23;;;;;;;20.42;100.00;99100.09;5043389;28;20572;-59
2023/07/24 06:04:30;;;;;;;9.53;3.07;;;;;;;20.56;100.00;99087.28;5043213;28;20185;-60
2023/07/24 06:06:55;;;;;;;6.93;2.87;;;;;;;20.67;100.00;99093.91;5053352;28;20181;-61
2023/07/24 06:09:21;;;;;;;7.67;3.27;;;;;;;20.93;100.00;99091.75;5054891;28;20181;-60
2023/07/24 06:11:46;;;;;;;4.10;2.37;;;;;;;21.06;100.00;99091.19;5057101;28;20221;-59
2023/07/24 06:14:11;;;;;;;8.93;3.03;;;;;;;21.28;100.00;99089.53;5056656;28;20672;-60
2023/07/24 06:16:36;;;;;;;11.67;3.20;;;;;;;21.30;100.00;99086.72;5054279;28;20185;-59
2023/07/24 06:19:02;;;;;;;8.70;3.03;;;;;;;21.56;100.00;99080.28;5054758;28;20276;-59
2023/07/24 06:21:27;;;;;;;3.63;2.43;;;;;;;21.87;100.00;99079.28;5055025;28;20220;-58
2023/07/24 06:23:52;;;;;;;13.17;2.93;;;;;;;22.19;100.00;99069.38;5059549;28;20708;-58
2023/07/24 06:26:17;;;;;;;8.00;2.87;;;;;;;22.37;100.00;99066.34;5053647;28;20189;-59
2023/07/24 06:28:43;;;;;;;14.10;2.67;;;;;;;22.57;98.89;99069.19;5054343;28;20188;-59
2023/07/24 06:31:08;;;;;;;11.20;3.23;;;;;;;22.66;97.69;99062.84;5051912;28;20229;-59
2023/07/24 06:33:33;;;;;;;9.60;2.70;;;;;;;22.67;97.12;99072.31;5061864;28;20189;-58
2023/07/24 06:35:58;;;;;;;10.97;2.80;;;;;;;22.65;97.57;99076.09;5054154;28;20181;-59
2023/07/24 06:38:24;;;;;;;6.83;2.77;;;;;;;22.87;96.11;99077.75;5049518;28;20670;-59
2023/07/24 06:40:49;;;;;;;4.20;2.63;;;;;;;22.89;96.90;99074.91;5039492;28;20237;-60
2023/07/24 06:43:14;;;;;;;4.37;2.93;;;;;;;22.86;97.63;99072.66;5052907;28;20205;-61
2023/07/24 06:45:39;;;;;;;3.83;2.53;;;;;;;22.92;96.64;99068.47;5053717;28;20272;-64
2023/07/24 06:48:05;;;;;;;5.60;3.03;;;;;;;23.24;94.62;99077.63;5053081;28;20264;-60
2023/07/24 06:50:30;;;;;;;5.03;2.90;;;;;;;24.00;89.88;99076.03;5038656;28;20586;-60
2023/07/24 06:52:55;;;;;;;7.70;2.57;;;;;;;24.77;86.38;99083.72;5052911;28;20182;-59
2023/07/24 06:55:21;;;;;;;6.03;2.30;;;;;;;25.17;82.48;99089.00;5047593;28;20230;-60
2023/07/24 06:57:46;;;;;;;9.45;3.03;;;;;;;24.85;83.49;99088.00;5053586;28;20174;-60
2023/07/24 07:00:12;;;;;;;4.25;3.17;;;;;;;24.81;83.23;99088.38;5033416;28;20270;-61
2023/07/24 07:02:38;;;;;;;3.30;2.97;;;;;;;24.49;86.68;99097.81;5053067;28;20632;-60
2023/07/24 07:05:04;;;;;;;4.03;3.10;;;;;;;24.62;86.26;99089.13;5051850;28;20641;-60
2023/07/24 07:07:29;;;;;;;4.80;2.97;;;;;;;24.71;86.21;99089.78;5051941;28;20169;-59
2023/07/24 07:09:55;;;;;;;3.75;2.90;;;;;;;24.07;88.15;99081.34;5051838;28;20181;-59
2023/07/24 07:12:20;;;;;;;8.73;3.30;;;;;;;23.30;93.07;99084.75;5055055;28;20280;-61
2023/07/24 07:14:45;;;;;;;3.28;2.97;;;;;;;23.28;95.49;99094.63;5052831;28;20225;-59
2023/07/24 07:17:10;;;;;;;5.15;2.50;;;;;;;23.82;94.13;99090.47;5058472;28;20255;-59
2023/07/24 07:19:36;;;;;;;3.58;2.53;;;;;;;23.56;92.72;99093.78;5042578;28;20336;-60
2023/07/24 07:22:01;;;;;;;5.13;2.80;;;;;;;23.26;96.86;99096.63;5041222;28;20236;-60
2023/07/24 07:24:27;;;;;;;2.92;2.65;;;;;;;23.33;95.74;99094.88;5044784;28;20589;-59
2023/07/24 07:26:52;;;;;;;3.73;2.90;;;;;;;22.58;98.16;99090.97;5052752;28;20173;-60
2023/07/24 07:29:17;;;;;;;6.47;3.10;;;;;;;23.01;97.92;99085.72;5053169;28;20207;-59
2023/07/24 07:31:42;;;;;;;3.50;2.83;;;;;;;23.05;96.76;99069.41;4999274;28;20222;-59
2023/07/24 07:34:08;;;;;;;7.03;2.97;;;;;;;23.16;97.08;99060.22;5040562;28;20185;-58
2023/07/24 07:36:33;;;;;;;4.63;2.90;;;;;;;23.09;97.50;99063.78;5061536;28;20173;-58
2023/07/24 07:38:58;;;;;;;3.17;2.50;;;;;;;23.40;96.71;99052.13;5047737;28;20189;-59
2023/07/24 07:41:23;;;;;;;8.30;3.53;;;;;;;23.38;94.92;99044.41;5047758;28;20648;-59
2023/07/24 07:43:49;;;;;;;3.53;2.87;;;;;;;23.40;96.28;99050.28;5050736;28;20197;-59
2023/07/24 07:46:14;;;;;;;4.37;2.97;;;;;;;23.50;97.40;99068.31;5049504;28;20272;-58
2023/07/24 07:48:40;;;;;;;2.70;2.50;;;;;;;23.62;94.75;99053.63;5052787;28;20197;-59
2023/07/24 07:51:06;;;;;;;6.10;3.10;;;;;;;23.81;95.02;99061.81;5039614;28;20228;-59
2023/07/24 07:53:31;;;;;;;5.03;3.13;;;;;;;23.46;95.96;99056.59;5031289;28;20186;-59
2023/07/24 07:55:59;;;;;;;4.53;2.70;;;;;;;23.49;97.39;99061.44;5051576;28;20181;-58
2023/07/24 07:58:25;;;;;;;4.73;2.90;;;;;;;23.55;95.44;99052.78;5052276;28;20189;-58
2023/07/24 08:00:50;;;;;;;5.20;3.60;;;;;;;23.81;94.46;99044.22;5039817;28;20248;-60
2023/07/24 08:03:15;;;;;;;4.30;2.80;;;;;;;24.30;92.98;99039.75;5047854;28;20194;-61
2023/07/24 08:05:40;;;;;;;3.50;2.53;;;;;;;24.57;89.10;99037.19;5038360;28;20182;-60
2023/07/24 08:08:06;;;;;;;4.83;3.20;;;;;;;24.26;90.81;99035.09;5043346;28;20272;-60
2023/07/24 08:10:31;;;;;;;4.15;3.28;;;;;;;24.25;90.84;99041.34;5039481;28;20299;-60
2023/07/24 08:12:56;;;;;;;6.22;2.63;;;;;;;24.55;92.61;99038.38;5056955;28;20171;-59
2023/07/24 08:15:22;;;;;;;3.28;2.97;;;;;;;24.80;89.17;99054.41;5046985;28;20233;-60
2023/07/24 08:17:47;;;;;;;3.80;2.50;;;;;;;25.15;90.33;99062.06;5051114;28;20181;-59
2023/07/24 08:20:12;;;;;;;6.32;2.60;;;;;;;25.04;88.69;99042.44;5038167;28;20223;-60
2023/07/24 08:22:38;;;;;;;3.28;2.72;;;;;;;25.39;86.79;99023.81;5051879;28;20221;-59
2023/07/24 08:25:03;;;;;;;4.50;3.28;;;;;;;25.46;86.03;99021.13;5048520;28;20261;-60
2023/07/24 08:27:29;;;;;;;3.95;3.15;;;;;;;25.10;85.19;99023.22;5052510;28;20260;-60
2023/07/24 08:29:55;;;;;;;4.43;2.88;;;;;;;25.51;83.59;99015.25;5052069;28;20200;-61
2023/07/24 08:32:20;;;;;;;6.47;2.95;;;;;;;26.00;80.69;99026.16;5046148;28;20224;-63
2023/07/24 08:34:45;;;;;;;5.63;3.05;;;;;;;26.26;79.26;99031.34;5053735;28;20196;-62
2023/07/24 08:37:11;;;;;;;7.47;3.88;;;;;;;26.75;75.42;99022.88;5051893;28;20189;-62
2023/07/24 08:39:36;;;;;;;5.50;2.92;;;;;;;26.97;72.99;99017.22;5049890;28;20259;-60
2023/07/24 08:42:09;;;;;;;3.30;2.95;;;;;;;27.01;73.29;99021.84;5056209;28;20683;-60
2023/07/24 08:44:35;;;;;;;3.30;3.00;;;;;;;27.49;68.57;99020.34;5050922;28;20569;-60
2023/07/24 08:47:01;;;;;;;3.00;2.70;;;;;;;27.52;69.68;99011.19;5043842;28;20193;-61
2023/07/24 08:49:29;;;;;;;4.03;2.92;;;;;;;28.00;65.55;99017.50;5046243;28;20264;-60
2023/07/24 08:51:55;;;;;;;2.53;2.33;;;;;;;28.74;62.66;99019.88;5038174;28;20217;-61
2023/07/24 08:54:22;;;;;;;2.42;2.22;;;;;;;28.96;58.10;99022.75;5036254;28;20174;-60
2023/07/24 08:56:50;;;;;;;3.20;2.70;;;;;;;28.94;59.87;99014.25;5049823;28;20235;-58
2023/07/24 08:59:15;;;;;;;4.50;2.63;;;;;;;29.33;59.88;99005.81;5039999;28;20316;-61
2023/07/24 09:01:41;;;;;;;3.25;2.75;;;;;;;29.57;57.28;99006.56;5051827;28;20235;-59
2023/07/24 09:04:06;;;;;;;2.47;2.28;;;;;;;29.25;56.36;99022.03;5053799;28;20268;-60
2023/07/24 09:06:31;;;;;;;2.88;2.47;;;;;;;28.73;59.00;99017.44;5050933;28;20181;-60
2023/07/24 09:08:57;;;;;;;2.58;2.35;;;;;;;28.40;63.61;99002.91;5051460;28;20235;-62
2023/07/24 09:11:22;;;;;;;2.90;2.70;;;;;;;27.92;62.99;98989.56;5064308;28;20293;-60
2023/07/24 09:13:47;;;;;;;6.43;2.60;;;;;;;27.20;69.74;98983.09;5053415;28;20233;-59
2023/07/24 09:16:23;;;;;;;5.38;2.55;;;;;;;26.60;72.04;98983.63;5051080;28;20181;-59
2023/07/24 09:18:51;;;;;;;5.20;2.88;;;;;;;26.31;79.04;98985.88;5049875;28;20592;-60
2023/07/24 09:21:27;;;;;;;2.75;2.45;;;;;;;25.88;77.33;98986.53;5044176;28;20300;-60
2023/07/24 09:23:52;;;;;;;3.42;2.28;;;;;;;26.07;78.38;98980.38;5043985;28;20249;-60
2023/07/24 09:26:17;;;;;;;4.63;2.80;;;;;;;26.24;77.14;98974.59;5050599;28;20711;-60
2023/07/24 09:28:52;;;;;;;2.53;2.17;;;;;;;26.56;74.94;98964.00;5050832;28;20238;-60
2023/07/24 09:31:17;;;;;;;5.45;2.97;;;;;;;26.71;71.60;98953.09;5034108;28;20691;-60
2023/07/24 09:33:46;;;;;;;3.95;2.80;;;;;;;26.95;71.96;98938.28;5050055;28;20182;-60
2023/07/24 09:36:12;;;;;;;3.40;2.60;;;;;;;28.30;62.27;98946.09;5049271;28;20177;-61
2023/07/24 09:38:38;;;;;;;4.32;2.60;;;;;;;29.49;57.80;98956.59;5049659;28;20185;-58
2023/07/24 09:41:05;;;;;;;3.75;2.53;;;;;;;30.03;51.48;98960.75;5041914;28;20231;-59
2023/07/24 09:43:31;;;;;;;3.67;2.22;;;;;;;30.21;49.39;98955.22;5049722;28;20235;-60
2023/07/24 09:45:57;;;;;;;2.80;2.60;;;;;;;28.83;53.14;98944.41;5050261;28;20256;-59
2023/07/24 09:48:26;;;;;;;4.68;2.70;;;;;;;28.01;55.89;98943.25;5062188;28;20583;-59
2023/07/24 09:50:56;;;;;;;3.83;3.00;;;;;;;28.15;58.99;98935.94;5030087;28;20240;-60
2023/07/24 09:53:43;;;;;;;3.47;3.17;;;;;;;28.63;56.31;98938.66;5039088;28;20201;-61
2023/07/24 09:56:09;;;;;;;6.22;3.03;;;;;;;30.58;45.57;98954.72;5037234;28;20181;-59
2023/07/24 09:58:36;;;;;;;4.65;3.10;;;;;;;30.77;42.88;98969.59;5049270;28;20188;-60
2023/07/24 10:01:03;;;;;;;3.97;3.00;;;;;;;29.28;46.16;98960.66;5041598;28;20220;-60
2023/07/24 10:03:29;;;;;;;3.78;3.30;;;;;;;28.56;51.62;98962.56;5058064;28;20193;-60
2023/07/24 10:05:55;;;;;;;6.40;4.30;;;;;;;28.21;52.38;98963.31;5050394;28;20280;-61
2023/07/24 10:08:21;;;;;;;4.38;3.28;;;;;;;27.69;54.71;98975.19;5039530;28;20321;-60
2023/07/24 10:10:46;;;;;;;5.00;4.03;;;;;;;27.65;54.69;98974.03;5040784;28;20248;-60
2023/07/24 10:13:14;;;;;;;6.03;4.25;;;;;;;27.78;54.68;98975.69;5055826;28;20181;-59
2023/07/24 10:15:45;;;;;;;5.45;4.18;;;;;;;27.42;58.31;98971.28;5046988;28;20266;-62
2023/07/24 10:18:10;;;;;;;4.00;3.60;;;;;;;27.69;57.85;98980.47;5036397;28;20637;-62
2023/07/24 10:20:38;;;;;;;3.70;3.40;;;;;;;27.90;54.58;98977.56;5043474;28;20228;-61
2023/07/24 10:23:05;;;;;;;7.07;3.95;;;;;;;27.73;55.49;98977.41;5049126;28;20178;-60
2023/07/24 10:25:32;;;;;;;5.82;3.92;;;;;;;28.01;54.66;98974.97;5048680;28;20181;-62
2023/07/24 10:28:10;;;;;;;4.00;3.60;;;;;;;28.14;56.42;98967.91;5039536;28;20184;-60
2023/07/24 10:30:40;;;;;;;4.30;3.97;;;;;;;28.17;56.70;98984.13;5031006;28;20284;-61
2023/07/24 10:33:10;;;;;;;4.13;3.47;;;;;;;28.63;52.93;98973.84;5038776;28;20635;-60
2023/07/24 10:35:40;;;;;;;13.02;4.22;;;;;;;28.52;47.32;98982.56;5044264;28;20181;-59
2023/07/24 10:38:05;;;;;;;4.38;3.97;;;;;;;28.44;46.21;98978.44;5050667;28;20185;-61
2023/07/24 10:40:33;;;;;;;4.18;3.50;;;;;;;28.42;48.12;98982.31;5040421;28;20602;-60
2023/07/24 10:43:00;;;;;;;8.80;3.25;;;;;;;28.02;51.78;98973.94;5038786;28;20204;-59
2023/07/24 10:45:26;;;;;;;3.88;3.42;;;;;;;28.08;55.92;98968.81;5048977;28;20181;-58
2023/07/24 10:47:52;;;;;;;8.23;3.83;;;;;;;28.15;54.28;98978.25;5052758;28;20187;-59
2023/07/24 10:50:17;;;;;;;3.97;3.58;;;;;;;27.91;56.80;98969.44;5043869;28;20211;-60
2023/07/24 10:52:42;;;;;;;7.05;3.33;;;;;;;28.02;57.26;98960.72;5060265;28;20538;-60
2023/07/24 10:55:07;;;;;;;5.10;3.60;;;;;;;28.23;55.06;98955.16;5053443;28;20173;-60
2023/07/24 10:57:33;;;;;;;4.25;3.38;;;;;;;28.15;54.10;98964.25;5053263;28;20186;-60
2023/07/24 10:59:59;;;;;;;5.03;4.38;;;;;;;28.21;52.88;98960.69;5050550;28;20293;-65
2023/07/24 11:02:25;;;;;;;8.18;4.75;;;;;;;28.09;49.95;98951.94;5012282;28;20313;-58
2023/07/24 11:04:50;;;;;;;4.97;3.90;;;;;;;28.09;50.87;98950.06;5044484;28;20272;-60
2023/07/24 11:07:16;;;;;;;4.95;4.03;;;;;;;28.05;50.94;98948.13;5053745;28;20549;-61
2023/07/24 11:09:41;;;;;;;4.43;4.03;;;;;;;27.98;51.31;98938.44;5043668;28;20637;-59
2023/07/24 11:12:14;;;;;;;4.60;3.67;;;;;;;28.46;51.34;98941.16;5042870;28;20217;-59
2023/07/24 11:14:49;;;;;;;7.10;4.13;;;;;;;28.67;50.22;98942.44;5044832;28;20225;-59
2023/07/24 11:17:14;;;;;;;3.85;3.45;;;;;;;28.42;55.39;98942.63;5041620;28;20228;-58
2023/07/24 11:19:40;;;;;;;6.13;3.30;;;;;;;28.87;51.44;98941.31;5058094;28;20209;-60
2023/07/24 11:22:06;;;;;;;4.97;3.42;;;;;;;28.69;52.64;98939.56;5050376;28;20232;-59
2023/07/24 11:24:32;;;;;;;4.70;3.50;;;;;;;28.31;56.59;98936.34;5054471;28;20181;-61